createdAt,value
2023-03-07T00:01:26.909Z,99374.69
2023-03-07T00:03:55.562Z,99343.50
2023-03-07T00:06:25.763Z,99360.03
2023-03-07T00:08:56.866Z,99329.69
2023-03-07T00:11:26.690Z,99319.28
2023-03-07T00:13:55.837Z,99306.25
2023-03-07T00:16:25.628Z,99338.34
2023-03-07T00:18:53.811Z,99340.09
2023-03-07T00:21:24.304Z,99329.66
2023-03-07T00:23:54.016Z,99334.06
2023-03-07T00:26:23.905Z,99322.81
2023-03-07T00:28:53.459Z,99305.53
2023-03-07T00:31:23.761Z,99298.56
2023-03-07T00:33:52.046Z,99279.47
2023-03-07T00:36:22.094Z,99298.56
2023-03-07T00:38:52.662Z,99306.34
2023-03-07T00:41:22.237Z,99272.56
2023-03-07T00:43:50.652Z,99282.97
2023-03-07T00:46:20.876Z,99283.03
2023-03-07T00:48:49.951Z,99289.09
2023-03-07T00:51:19.540Z,99274.38
2023-03-07T00:53:48.231Z,99279.59
2023-03-07T00:56:19.613Z,99277.84
2023-03-07T00:58:48.775Z,99244.91
2023-03-07T01:01:20.073Z,99258.78
2023-03-07T01:03:50.290Z,99244.88
2023-03-07T01:06:20.311Z,99243.22
2023-03-07T01:08:48.754Z,99239.75
2023-03-07T01:11:18.552Z,99230.22
2023-03-07T01:13:47.090Z,99232.84
2023-03-07T01:16:17.988Z,99229.34
2023-03-07T01:18:49.995Z,99207.75
2023-03-07T01:21:19.952Z,99206.88
2023-03-07T01:23:48.439Z,99198.25
2023-03-07T01:26:19.421Z,99192.16
2023-03-07T01:28:47.778Z,99155.75
2023-03-07T01:31:16.083Z,99168.75
2023-03-07T01:33:44.487Z,99163.56
2023-03-07T01:36:21.031Z,99160.97
2023-03-07T01:38:49.960Z,99148.00
2023-03-07T01:41:19.486Z,99125.47
2023-03-07T01:43:47.515Z,99142.78
2023-03-07T01:46:44.952Z,99126.34
2023-03-07T01:49:19.585Z,99104.69
2023-03-07T01:51:50.627Z,99098.66
2023-03-07T01:54:21.622Z,99062.28
2023-03-07T01:56:52.412Z,99066.63
2023-03-07T01:59:29.294Z,99059.72
2023-03-07T02:01:59.112Z,99059.72
2023-03-07T02:04:34.823Z,99051.94
2023-03-07T02:07:04.900Z,99009.53
2023-03-07T02:09:35.121Z,99032.88
2023-03-07T02:12:05.888Z,99019.91
2023-03-07T02:14:34.168Z,99026.81
2023-03-07T02:17:02.718Z,99025.09
2023-03-07T02:19:44.695Z,99021.66
2023-03-07T02:22:17.083Z,99023.38
2023-03-07T02:24:52.837Z,99006.06
2023-03-07T02:27:24.809Z,99007.81
2023-03-07T02:29:53.800Z,98990.50
2023-03-07T02:32:22.173Z,98997.44
2023-03-07T02:34:50.342Z,98983.56
2023-03-07T02:37:21.899Z,98976.69
2023-03-07T02:39:50.060Z,98979.25
2023-03-07T02:42:23.555Z,98971.50
2023-03-07T02:44:58.242Z,98932.59
2023-03-07T02:47:26.910Z,98966.28
2023-03-07T02:49:55.419Z,98943.81
2023-03-07T02:52:24.276Z,98953.28
2023-03-07T02:54:52.499Z,98954.16
2023-03-07T02:57:22.081Z,98952.47
2023-03-07T02:59:50.128Z,98956.78
2023-03-07T03:02:18.654Z,98913.56
2023-03-07T03:04:47.274Z,98918.75
2023-03-07T03:07:15.421Z,98923.03
2023-03-07T03:09:43.687Z,98910.06
2023-03-07T03:12:12.072Z,98906.63
2023-03-07T03:14:41.681Z,98904.03
2023-03-07T03:17:10.032Z,98898.84
2023-03-07T03:19:38.388Z,98894.53
2023-03-07T03:22:06.789Z,98888.47
2023-03-07T03:24:35.386Z,98859.09
2023-03-07T03:27:05.141Z,98855.66
2023-03-07T03:29:33.493Z,98851.31
2023-03-07T03:32:03.929Z,98859.09
2023-03-07T03:34:32.426Z,98855.63
2023-03-07T03:37:00.774Z,98836.63
2023-03-07T03:39:29.305Z,98845.28
2023-03-07T03:41:58.361Z,98834.91
2023-03-07T03:44:26.741Z,98825.41
2023-03-07T03:46:55.960Z,98822.78
2023-03-07T03:49:25.703Z,98795.16
2023-03-07T03:51:53.846Z,98797.75
2023-03-07T03:54:22.122Z,98800.34
2023-03-07T03:56:50.343Z,98783.06
2023-03-07T03:59:18.919Z,98776.16
2023-03-07T04:01:47.967Z,98777.88
2023-03-07T04:04:16.333Z,98757.16
2023-03-07T04:06:45.869Z,98760.63
2023-03-07T04:09:14.127Z,98760.63
2023-03-07T04:11:45.411Z,98750.25
2023-03-07T04:14:13.647Z,98740.75
2023-03-07T04:16:42.652Z,98726.97
2023-03-07T04:19:12.997Z,98705.38
2023-03-07T04:21:42.019Z,98698.44
2023-03-07T04:24:11.967Z,98696.75
2023-03-07T04:26:40.254Z,98691.53
2023-03-07T04:29:08.403Z,98683.78
2023-03-07T04:31:36.514Z,98666.53
2023-03-07T04:34:04.611Z,98670.81
2023-03-07T04:36:32.808Z,98605.25
2023-03-07T04:39:00.962Z,98591.47
2023-03-07T04:41:30.563Z,98638.06
2023-03-07T04:43:58.918Z,98632.88
2023-03-07T04:46:28.376Z,98619.06
2023-03-07T04:48:56.769Z,98612.19
2023-03-07T04:51:25.111Z,98594.91
2023-03-07T04:53:53.939Z,98563.84
2023-03-07T04:56:22.120Z,98574.22
2023-03-07T04:58:51.642Z,98562.13
2023-03-07T05:01:20.718Z,98558.72
2023-03-07T05:03:48.957Z,98543.16
2023-03-07T05:06:17.930Z,98534.56
2023-03-07T05:08:46.460Z,98533.69
2023-03-07T05:11:14.911Z,98514.72
2023-03-07T05:13:42.933Z,98484.56
2023-03-07T05:16:17.613Z,98465.63
2023-03-07T05:18:45.739Z,98467.34
2023-03-07T05:21:14.127Z,98453.53
2023-03-07T05:23:42.379Z,98455.28
2023-03-07T05:26:10.654Z,98446.63
2023-03-07T05:28:39.261Z,98428.50
2023-03-07T05:31:08.034Z,98427.34
2023-03-07T05:33:37.648Z,98417.72
2023-03-07T05:36:06.251Z,98421.25
2023-03-07T05:38:34.688Z,98399.44
2023-03-07T05:41:03.001Z,98401.66
2023-03-07T05:43:31.322Z,98415.63
2023-03-07T05:45:59.603Z,98393.22
2023-03-07T05:48:28.540Z,98392.25
2023-03-07T05:51:00.395Z,98363.47
2023-03-07T05:53:28.936Z,98364.19
2023-03-07T05:55:57.505Z,98351.38
2023-03-07T05:58:25.883Z,98361.44
2023-03-07T06:00:53.985Z,98350.19
2023-03-07T06:03:22.202Z,98332.28
2023-03-07T06:05:51.236Z,98327.78
2023-03-07T06:08:20.719Z,98329.78
2023-03-07T06:10:50.908Z,98334.69
2023-03-07T06:13:21.248Z,98325.47
2023-03-07T06:15:51.156Z,98320.19
2023-03-07T06:18:19.802Z,98285.41
2023-03-07T06:20:56.908Z,98307.19
2023-03-07T06:23:26.880Z,98305.00
2023-03-07T06:25:55.630Z,98307.69
2023-03-07T06:28:24.540Z,98271.72
2023-03-07T06:30:53.218Z,98297.84
2023-03-07T06:33:22.132Z,98290.38
2023-03-07T06:35:50.614Z,98283.38
2023-03-07T06:38:19.380Z,98294.19
2023-03-07T06:40:56.908Z,98289.09
2023-03-07T06:43:25.470Z,98278.47
2023-03-07T06:45:53.713Z,98273.59
2023-03-07T06:48:22.308Z,98270.56
2023-03-07T06:50:51.204Z,98252.56
2023-03-07T06:53:19.767Z,98255.94
2023-03-07T06:55:51.721Z,98237.22
2023-03-07T06:58:20.547Z,98251.06
2023-03-07T07:00:48.715Z,98238.94
2023-03-07T07:03:17.884Z,98239.34
2023-03-07T07:05:46.276Z,98251.13
2023-03-07T07:08:14.456Z,98215.66
2023-03-07T07:10:42.826Z,98224.06
2023-03-07T07:13:13.887Z,98216.69
2023-03-07T07:15:42.614Z,98200.03
2023-03-07T07:18:14.483Z,98208.16
2023-03-07T07:20:42.801Z,98211.81
2023-03-07T07:23:10.939Z,98156.72
2023-03-07T07:25:39.956Z,98192.84
2023-03-07T07:28:08.146Z,98187.69
2023-03-07T07:30:37.639Z,98177.06
2023-03-07T07:33:06.144Z,98185.00
2023-03-07T07:35:37.068Z,98164.19
2023-03-07T07:38:05.499Z,98169.38
2023-03-07T07:40:34.032Z,98169.84
2023-03-07T07:43:02.023Z,98161.56
2023-03-07T07:45:30.270Z,98151.06
2023-03-07T07:48:00.250Z,98136.56
2023-03-07T07:50:28.424Z,98148.00
2023-03-07T07:52:56.872Z,98150.63
2023-03-07T07:55:25.713Z,98143.81
2023-03-07T07:57:54.813Z,98139.88
2023-03-07T08:00:23.433Z,98146.16
2023-03-07T08:02:52.870Z,98114.78
2023-03-07T08:05:23.342Z,98122.66
2023-03-07T08:07:52.071Z,98125.84
2023-03-07T08:10:20.420Z,98126.31
2023-03-07T08:12:51.785Z,98106.22
2023-03-07T08:15:21.731Z,98098.25
2023-03-07T08:17:50.585Z,98094.06
2023-03-07T08:20:20.045Z,98107.78
2023-03-07T08:22:50.189Z,98079.16
2023-03-07T08:25:21.747Z,98099.69
2023-03-07T08:27:53.400Z,98090.78
2023-03-07T08:30:21.945Z,98086.66
2023-03-07T08:32:51.464Z,98092.09
2023-03-07T08:35:20.070Z,98082.97
2023-03-07T08:37:50.737Z,98073.50
2023-03-07T08:40:19.230Z,98077.34
2023-03-07T08:42:47.440Z,98067.75
2023-03-07T08:45:15.450Z,98063.34
2023-03-07T08:47:43.779Z,98054.22
2023-03-07T08:50:13.183Z,98061.38
2023-03-07T08:52:41.272Z,98057.41
2023-03-07T08:55:11.746Z,98052.66
2023-03-07T08:57:40.053Z,98044.41
2023-03-07T09:00:10.607Z,98032.38
2023-03-07T09:02:38.827Z,98041.09
2023-03-07T09:05:07.987Z,98032.19
2023-03-07T09:07:36.308Z,98017.91
2023-03-07T09:10:06.019Z,98029.16
2023-03-07T09:12:36.293Z,98046.13
2023-03-07T09:15:04.609Z,98000.72
2023-03-07T09:17:32.729Z,98022.88
2023-03-07T09:20:01.352Z,98027.38
2023-03-07T09:22:31.733Z,98017.72
2023-03-07T09:25:00.004Z,98019.41
2023-03-07T09:27:28.675Z,98017.28
2023-03-07T09:29:58.491Z,98021.09
2023-03-07T09:32:26.857Z,98022.00
2023-03-07T09:34:55.593Z,98022.25
2023-03-07T09:37:23.863Z,98016.19
2023-03-07T09:39:52.232Z,98021.63
2023-03-07T09:42:26.945Z,98009.81
2023-03-07T09:45:20.725Z,97988.47
2023-03-07T09:48:10.614Z,97992.31
2023-03-07T09:50:47.600Z,97995.56
2023-03-07T09:53:24.269Z,97997.09
2023-03-07T09:55:56.048Z,97987.97
2023-03-07T09:58:26.090Z,97993.13
2023-03-07T10:01:00.984Z,97981.09
2023-03-07T10:03:35.157Z,97993.25
2023-03-07T10:06:10.423Z,97981.94
2023-03-07T10:08:39.334Z,97987.34
2023-03-07T10:11:23.181Z,97977.75
2023-03-07T10:14:04.798Z,97982.88
2023-03-07T10:16:41.201Z,97977.47
2023-03-07T10:19:15.484Z,97973.97
2023-03-07T10:21:52.291Z,97973.91
2023-03-07T10:24:45.949Z,97962.44
2023-03-07T10:27:16.228Z,97942.59
2023-03-07T10:29:48.412Z,97953.72
2023-03-07T10:32:27.288Z,97950.56
2023-03-07T10:35:01.481Z,97953.59
2023-03-07T10:37:44.199Z,97946.16
2023-03-07T10:40:21.162Z,97943.19
2023-03-07T10:42:49.513Z,97938.50
2023-03-07T10:45:18.269Z,97935.06
2023-03-07T10:47:48.447Z,97926.53
2023-03-07T10:50:27.936Z,97936.66
2023-03-07T10:52:59.023Z,97929.97
2023-03-07T10:55:35.836Z,97918.41
2023-03-07T10:58:19.910Z,97922.72
2023-03-07T11:00:59.944Z,97917.41
2023-03-07T11:03:49.662Z,97909.63
2023-03-07T11:06:30.437Z,97919.56
2023-03-07T11:08:59.097Z,97885.97
2023-03-07T11:11:33.304Z,97876.59
2023-03-07T11:14:08.037Z,97913.00
2023-03-07T11:16:41.817Z,97910.06
2023-03-07T11:19:31.439Z,97899.25
2023-03-07T11:22:01.426Z,97906.13
2023-03-07T11:24:31.778Z,97898.59
2023-03-07T11:27:01.246Z,97913.47
2023-03-07T11:29:29.724Z,97900.66
2023-03-07T11:32:06.007Z,97897.59
2023-03-07T11:34:42.748Z,97906.53
2023-03-07T11:37:36.280Z,97903.94
2023-03-07T11:40:23.086Z,97901.75
2023-03-07T11:43:01.628Z,97903.75
2023-03-07T11:45:37.158Z,97909.13
2023-03-07T11:48:21.550Z,97912.13
2023-03-07T11:50:57.561Z,97898.31
2023-03-07T11:53:53.625Z,97898.31
2023-03-07T11:56:31.059Z,97887.25
2023-03-07T11:59:35.216Z,97895.66
2023-03-07T12:02:08.213Z,97897.06
2023-03-07T12:05:15.906Z,97886.88
2023-03-07T12:07:59.013Z,97894.09
2023-03-07T12:10:36.664Z,97893.00
2023-03-07T12:13:16.547Z,97891.00
2023-03-07T12:15:54.647Z,97885.72
2023-03-07T12:18:37.840Z,97893.38
2023-03-07T12:21:23.782Z,97897.03
2023-03-07T12:23:56.699Z,97885.00
2023-03-07T12:26:30.229Z,97901.81
2023-03-07T12:29:07.438Z,97887.72
2023-03-07T12:31:39.415Z,97899.56
2023-03-07T12:34:15.049Z,97873.94
2023-03-07T12:36:48.037Z,97890.31
2023-03-07T12:39:25.669Z,97895.28
2023-03-07T12:42:02.959Z,97886.81
2023-03-07T12:44:36.521Z,97895.53
2023-03-07T12:47:15.081Z,97895.13
2023-03-07T12:49:50.600Z,97890.75
2023-03-07T12:52:30.198Z,97888.75
2023-03-07T12:55:08.131Z,97899.72
2023-03-07T12:57:43.719Z,97881.47
2023-03-07T13:00:18.733Z,97891.28
2023-03-07T13:02:54.572Z,97903.06
2023-03-07T13:05:23.423Z,97902.97
2023-03-07T13:07:52.298Z,97895.97
2023-03-07T13:10:23.861Z,97902.34
2023-03-07T13:12:53.572Z,97908.44
2023-03-07T13:16:03.803Z,97909.03
2023-03-07T13:18:34.119Z,97918.09
2023-03-07T13:21:11.222Z,97902.72
2023-03-07T13:23:39.710Z,97911.16
2023-03-07T13:26:14.710Z,97919.84
2023-03-07T13:28:51.829Z,97924.25
2023-03-07T13:31:46.144Z,97913.97
2023-03-07T13:34:47.096Z,97923.47
2023-03-07T13:37:55.663Z,97923.38
2023-03-07T13:40:55.633Z,97923.38
2023-03-07T13:43:57.977Z,97931.13
2023-03-07T13:46:47.821Z,97933.22
2023-03-07T13:49:49.338Z,97939.03
2023-03-07T13:52:40.409Z,97938.88
2023-03-07T13:55:31.484Z,97942.97
2023-03-07T13:58:07.913Z,97933.56
2023-03-07T14:00:43.077Z,97944.44
2023-03-07T14:03:27.686Z,97937.97
2023-03-07T14:05:59.495Z,97952.41
2023-03-07T14:08:32.990Z,97959.59
2023-03-07T14:11:01.856Z,97950.25
2023-03-07T14:14:00.857Z,97953.38
2023-03-07T14:16:47.713Z,97971.41
2023-03-07T14:19:33.035Z,97967.09
2023-03-07T14:22:06.348Z,97972.63
2023-03-07T14:24:57.149Z,97959.91
2023-03-07T14:27:25.713Z,97969.63
2023-03-07T14:29:57.323Z,97978.56
2023-03-07T14:32:32.439Z,97976.06
2023-03-07T14:35:15.253Z,97982.19
2023-03-07T14:37:46.774Z,97980.00
2023-03-07T14:40:37.729Z,97987.84
2023-03-07T14:43:26.722Z,97994.38
2023-03-07T14:46:02.362Z,97996.03
2023-03-07T14:48:59.548Z,97995.94
2023-03-07T14:51:33.067Z,97989.16
2023-03-07T14:54:18.846Z,98017.44
2023-03-07T14:56:54.543Z,98023.56
2023-03-07T14:59:28.851Z,97994.94
2023-03-07T15:02:01.586Z,98034.38
2023-03-07T15:04:39.161Z,98035.19
2023-03-07T15:07:11.472Z,98033.56
2023-03-07T15:09:41.081Z,98039.25
2023-03-07T15:12:21.638Z,98051.09
2023-03-07T15:14:53.794Z,98033.13
2023-03-07T15:17:27.911Z,98052.13
2023-03-07T15:20:02.134Z,98055.50
2023-03-07T15:22:34.039Z,98058.91
2023-03-07T15:25:05.699Z,98064.44
2023-03-07T15:27:34.859Z,98052.44
2023-03-07T15:30:39.425Z,98036.00
2023-03-07T15:33:19.135Z,98076.97
2023-03-07T15:39:52.509Z,98094.09
2023-03-07T15:42:43.161Z,98044.66
2023-03-07T15:52:14.573Z,98073.97
2023-03-07T15:54:55.918Z,98099.53
2023-03-07T15:57:41.248Z,98087.03
2023-03-07T16:00:21.656Z,98117.31
2023-03-07T16:02:51.187Z,98011.47
2023-03-07T16:09:18.609Z,98112.00
2023-03-07T16:11:58.948Z,98055.63
2023-03-07T16:14:53.940Z,97961.94
2023-03-07T16:17:31.964Z,97971.78
2023-03-07T16:20:07.889Z,98087.19
2023-03-07T16:22:49.868Z,97967.28
2023-03-07T16:25:22.325Z,98163.91
2023-03-07T16:28:02.865Z,98132.97
2023-03-07T16:33:52.312Z,98123.50
2023-03-07T16:36:32.059Z,98154.22
2023-03-07T16:39:10.043Z,98092.53
2023-03-07T16:41:52.194Z,98120.06
2023-03-07T16:44:25.798Z,98122.69
2023-03-07T16:47:10.584Z,98207.56
2023-03-07T16:49:45.605Z,98193.31
2023-03-07T16:52:28.130Z,98220.22
2023-03-07T16:55:06.138Z,98243.47
2023-03-07T16:57:39.107Z,98221.91
2023-03-07T17:00:26.773Z,98238.78
2023-03-07T17:06:09.702Z,98258.06
2023-03-07T17:08:42.010Z,98252.63
2023-03-07T17:11:22.434Z,98269.91
2023-03-07T17:13:56.973Z,98130.81
2023-03-07T17:16:47.514Z,98260.91
2023-03-07T17:19:38.862Z,98203.84
2023-03-07T17:22:09.460Z,98246.88
2023-03-07T17:24:41.051Z,98233.91
2023-03-07T17:27:14.032Z,98142.47
2023-03-07T17:29:46.402Z,98289.22
2023-03-07T17:32:15.368Z,98150.19
2023-03-07T17:34:52.566Z,98297.06
2023-03-07T17:37:24.468Z,98244.75
2023-03-07T17:40:15.115Z,98211.47
2023-03-07T17:43:05.230Z,98265.47
2023-03-07T17:45:44.852Z,98291.19
2023-03-07T17:48:18.050Z,98349.91
2023-03-07T17:50:54.016Z,98362.06
2023-03-07T17:53:29.928Z,98297.59
2023-03-07T17:56:29.757Z,98373.53
2023-03-07T17:59:09.787Z,98170.00
2023-03-07T18:01:54.569Z,98343.34
2023-03-07T18:04:36.705Z,98187.94
2023-03-07T18:07:18.956Z,98319.28
2023-03-07T18:10:05.808Z,98401.78
2023-03-07T18:12:42.175Z,98240.63
2023-03-07T18:15:25.615Z,98419.44
2023-03-07T18:17:58.601Z,98309.09
2023-03-07T18:20:33.583Z,98285.22
2023-03-07T18:23:04.264Z,98433.22
2023-03-07T18:25:43.389Z,98321.47
2023-03-07T18:28:29.432Z,98442.16
2023-03-07T18:31:03.519Z,98453.31
2023-03-07T18:33:33.218Z,98475.00
2023-03-07T18:36:02.354Z,98449.03
2023-03-07T18:38:33.385Z,98416.50
2023-03-07T18:41:06.439Z,98494.88
2023-03-07T18:43:35.663Z,98482.94
2023-03-07T18:46:05.985Z,98508.03
2023-03-07T18:48:34.604Z,98388.50
2023-03-07T18:51:12.855Z,98379.91
2023-03-07T18:53:44.184Z,98399.59
2023-03-07T18:56:20.124Z,98513.28
2023-03-07T18:58:59.458Z,98351.59
2023-03-07T19:01:30.108Z,98462.59
2023-03-07T19:04:03.781Z,98368.69
2023-03-07T19:06:37.536Z,98431.63
2023-03-07T19:09:36.358Z,98542.66
2023-03-07T19:12:35.569Z,98349.88
2023-03-07T19:18:10.174Z,98561.66
2023-03-07T19:21:02.483Z,98377.47
2023-03-07T19:23:33.989Z,98520.38
2023-03-07T19:26:08.782Z,98492.81
2023-03-07T19:28:51.941Z,98455.75
2023-03-07T19:31:23.049Z,98589.31
2023-03-07T19:33:52.831Z,98523.88
2023-03-07T19:36:27.392Z,98601.38
2023-03-07T19:39:01.420Z,98572.06
2023-03-07T19:41:33.539Z,98598.81
2023-03-07T19:44:08.975Z,98616.06
2023-03-07T19:46:37.449Z,98606.63
2023-03-07T19:49:07.631Z,98498.97
2023-03-07T19:51:42.473Z,98537.69
2023-03-07T19:54:15.694Z,98629.06
2023-03-07T19:56:51.192Z,98505.09
2023-03-07T19:59:23.260Z,98585.25
2023-03-07T20:01:52.907Z,98634.41
2023-03-07T20:04:21.776Z,98618.94
2023-03-07T20:06:53.379Z,98648.28
2023-03-07T20:09:25.905Z,98616.34
2023-03-07T20:12:05.909Z,98572.41
2023-03-07T20:14:40.698Z,98509.50
2023-03-07T20:17:16.210Z,98675.91
2023-03-07T20:19:45.641Z,98611.28
2023-03-07T20:22:31.400Z,98579.38
2023-03-07T20:25:10.139Z,98636.28
2023-03-07T20:27:57.533Z,98613.88
2023-03-07T20:30:45.372Z,98596.63
2023-03-07T20:33:44.305Z,98670.00
2023-03-07T20:36:23.349Z,98705.38
2023-03-07T20:38:55.706Z,98655.31
2023-03-07T20:44:43.657Z,98732.97
2023-03-07T20:47:24.491Z,98625.09
2023-03-07T20:49:55.400Z,98696.75
2023-03-07T20:52:27.293Z,98758.03
2023-03-07T20:54:56.974Z,98672.56
2023-03-07T20:57:30.064Z,98701.91
2023-03-07T21:00:13.559Z,98764.06
2023-03-07T21:03:05.803Z,98600.97
2023-03-07T21:05:38.028Z,98765.81
2023-03-07T21:09:04.735Z,98658.75
2023-03-07T21:11:51.979Z,98613.91
2023-03-07T21:14:28.854Z,98608.72
2023-03-07T21:16:59.165Z,98688.06
2023-03-07T21:19:50.099Z,98691.56
2023-03-07T21:22:18.469Z,98671.72
2023-03-07T21:24:49.121Z,98814.16
2023-03-07T21:31:31.333Z,98828.84
2023-03-07T21:34:41.818Z,98840.09
2023-03-07T21:37:19.200Z,98653.53
2023-03-07T21:39:59.305Z,98727.78
2023-03-07T21:42:45.882Z,98852.19
2023-03-07T21:45:17.894Z,98869.44
2023-03-07T21:48:12.453Z,98878.09
2023-03-07T21:51:06.237Z,98793.41
2023-03-07T21:54:23.846Z,98834.88
2023-03-07T21:56:52.726Z,98812.44
2023-03-07T21:59:21.764Z,98836.59
2023-03-07T22:01:50.147Z,98895.41
2023-03-07T22:04:20.838Z,98885.00
2023-03-07T22:06:53.266Z,98861.66
2023-03-07T22:09:24.790Z,98779.56
2023-03-07T22:11:53.096Z,98909.19
2023-03-07T22:14:23.141Z,98909.22
2023-03-07T22:17:01.079Z,98830.56
2023-03-07T22:19:32.360Z,98883.25
2023-03-07T22:22:05.405Z,98859.09
2023-03-07T22:24:34.348Z,98779.63
2023-03-07T22:27:07.588Z,98916.13
2023-03-07T22:29:41.958Z,98883.28
2023-03-07T22:32:17.040Z,98917.00
2023-03-07T22:34:45.327Z,98926.53
2023-03-07T22:37:15.131Z,98916.16
2023-03-07T22:39:43.793Z,98919.59
2023-03-07T22:42:12.256Z,98926.53
2023-03-07T22:44:40.827Z,98931.72
2023-03-07T22:47:10.024Z,98910.94
2023-03-07T22:49:38.919Z,98951.59
2023-03-07T22:52:08.228Z,98886.75
2023-03-07T22:54:39.646Z,98950.72
2023-03-07T22:57:08.484Z,98954.19
2023-03-07T22:59:36.783Z,98893.66
2023-03-07T23:02:05.548Z,98929.97
2023-03-07T23:04:36.241Z,98958.50
2023-03-07T23:07:05.144Z,98892.81
2023-03-07T23:09:39.858Z,98927.38
2023-03-07T23:12:10.439Z,98930.84
2023-03-07T23:14:42.744Z,98964.56
2023-03-07T23:17:15.259Z,98853.88
2023-03-07T23:19:43.979Z,98921.34
2023-03-07T23:22:12.740Z,98968.03
2023-03-07T23:24:40.945Z,98957.63
2023-03-07T23:27:13.253Z,98895.38
2023-03-07T23:29:42.099Z,98978.41
2023-03-07T23:32:17.057Z,98896.22
2023-03-07T23:34:48.023Z,98902.31
2023-03-07T23:37:16.189Z,98959.38
2023-03-07T23:39:44.674Z,98966.31
2023-03-07T23:42:21.202Z,98884.13
2023-03-07T23:44:52.409Z,99000.00
2023-03-07T23:47:23.192Z,98995.66
2023-03-07T23:49:56.749Z,99000.84
2023-03-07T23:52:28.656Z,98890.19
2023-03-07T23:54:59.921Z,99016.44
2023-03-07T23:57:32.777Z,98923.00
